createdAt,value
2019-04-28T00:00:34.204Z,0
2019-04-28T00:02:58.595Z,0
2019-04-28T00:05:22.987Z,0
2019-04-28T00:06:36.446Z,0
2019-04-28T00:07:47.436Z,0
2019-04-28T00:10:11.841Z,0
2019-04-28T00:11:23.960Z,0
2019-04-28T00:12:36.170Z,0
2019-04-28T00:13:48.549Z,0
2019-04-28T00:15:00.546Z,0
2019-04-28T00:16:12.762Z,0
2019-04-28T00:17:24.937Z,0
2019-04-28T00:18:37.729Z,0
2019-04-28T00:19:49.374Z,0
2019-04-28T00:21:01.573Z,0
2019-04-28T00:24:38.142Z,0
2019-04-28T00:25:50.439Z,0
2019-04-28T00:27:02.666Z,0
2019-04-28T00:28:14.907Z,0
2019-04-28T00:29:26.931Z,0
2019-04-28T00:30:39.131Z,0
2019-04-28T00:31:51.485Z,0
2019-04-28T00:33:03.482Z,0
2019-04-28T00:35:27.860Z,0
2019-04-28T00:36:40.137Z,0
2019-04-28T00:37:52.253Z,0
2019-04-28T00:39:04.469Z,0
2019-04-28T00:41:28.849Z,0
2019-04-28T00:42:41.275Z,0
2019-04-28T00:43:53.380Z,0
2019-04-28T00:45:05.503Z,0
2019-04-28T00:47:29.977Z,0
2019-04-28T00:48:42.016Z,0
2019-04-28T00:51:06.424Z,0
2019-04-28T00:52:18.673Z,0
2019-04-28T00:53:30.805Z,0
2019-04-28T00:54:43.031Z,0
2019-04-28T00:55:56.580Z,0
2019-04-28T00:57:07.393Z,0
2019-04-28T00:58:19.596Z,0
2019-04-28T00:59:32.159Z,0
2019-04-28T01:00:43.984Z,0
2019-04-28T01:01:56.308Z,0
2019-04-28T01:03:08.362Z,0
2019-04-28T01:04:20.741Z,0
2019-04-28T01:05:32.771Z,0
2019-04-28T01:06:44.954Z,0
2019-04-28T01:07:57.255Z,0
2019-04-28T01:09:09.347Z,0
2019-04-28T01:11:33.727Z,0
2019-04-28T01:12:45.970Z,0
2019-04-28T01:13:58.118Z,0
2019-04-28T01:15:10.363Z,0
2019-04-28T01:16:22.540Z,0
2019-04-28T01:17:34.748Z,0
2019-04-28T01:18:46.916Z,0
2019-04-28T01:19:59.167Z,0
2019-04-28T01:21:11.358Z,0
2019-04-28T01:23:35.680Z,0
2019-04-28T01:24:47.940Z,0
2019-04-28T01:26:00.157Z,0
2019-04-28T01:27:12.268Z,0
2019-04-28T01:28:24.590Z,0
2019-04-28T01:29:36.699Z,0
2019-04-28T01:32:01.073Z,0
2019-04-28T01:33:13.271Z,0
2019-04-28T01:35:37.773Z,0
2019-04-28T01:36:49.874Z,0
2019-04-28T01:38:02.110Z,0
2019-04-28T01:39:14.242Z,0
2019-04-28T01:40:26.422Z,0
2019-04-28T01:41:38.614Z,0
2019-04-28T01:42:50.835Z,0
2019-04-28T01:44:03.001Z,0
2019-04-28T01:45:15.197Z,0
2019-04-28T01:47:39.635Z,0
2019-04-28T01:48:51.905Z,0
2019-04-28T01:50:03.982Z,0
2019-04-28T01:51:16.211Z,0
2019-04-28T01:52:28.397Z,0
2019-04-28T01:53:40.602Z,0
2019-04-28T01:54:52.844Z,0
2019-04-28T01:56:05.001Z,0
2019-04-28T01:57:17.150Z,0
2019-04-28T01:58:29.364Z,0
2019-04-28T01:59:41.548Z,0
2019-04-28T02:00:53.740Z,0
2019-04-28T02:02:06.020Z,0
2019-04-28T02:03:18.197Z,0
2019-04-28T02:04:30.345Z,0
2019-04-28T02:05:42.518Z,0
2019-04-28T02:08:06.966Z,0
2019-04-28T02:09:19.137Z,0
2019-04-28T02:11:43.504Z,0
2019-04-28T02:12:55.750Z,0
2019-04-28T02:14:07.970Z,0
2019-04-28T02:15:20.086Z,0
2019-04-28T02:16:32.524Z,0
2019-04-28T02:17:44.459Z,0
2019-04-28T02:18:56.675Z,0
2019-04-28T02:20:08.922Z,0
2019-04-28T02:21:21.030Z,0
2019-04-28T02:23:45.504Z,0
2019-04-28T02:24:57.630Z,0
2019-04-28T02:26:09.950Z,0
2019-04-28T02:27:22.104Z,0
2019-04-28T02:28:34.995Z,0
2019-04-28T02:29:47.806Z,0
2019-04-28T02:31:00.308Z,0
2019-04-28T02:32:10.801Z,0
2019-04-28T02:33:22.982Z,0
2019-04-28T02:35:47.408Z,0
2019-04-28T02:36:59.575Z,0
2019-04-28T02:38:11.819Z,0
2019-04-28T02:39:24.047Z,0
2019-04-28T02:40:36.513Z,0
2019-04-28T02:41:48.337Z,0
2019-04-28T02:43:04.522Z,0
2019-04-28T02:44:17.782Z,0
2019-04-28T02:45:24.991Z,0
2019-04-28T02:47:49.322Z,0
2019-04-28T02:49:01.523Z,0
2019-04-28T02:51:25.907Z,0
2019-04-28T02:52:38.079Z,0
2019-04-28T02:53:50.454Z,0
2019-04-28T02:55:02.585Z,0
2019-04-28T02:56:14.729Z,0
2019-04-28T02:59:51.284Z,0
2019-04-28T03:01:03.554Z,0
2019-04-28T03:02:15.717Z,0
2019-04-28T03:03:27.825Z,0
2019-04-28T03:04:40.033Z,0
2019-04-28T03:05:52.213Z,0
2019-04-28T03:07:04.505Z,0
2019-04-28T03:08:16.595Z,0
2019-04-28T03:09:28.924Z,0
2019-04-28T03:10:41.063Z,0
2019-04-28T03:11:53.171Z,0
2019-04-28T03:13:05.453Z,0
2019-04-28T03:14:17.659Z,0
2019-04-28T03:15:29.758Z,0
2019-04-28T03:16:42.049Z,0
2019-04-28T03:17:54.215Z,0
2019-04-28T03:19:06.469Z,0
2019-04-28T03:20:19.280Z,0
2019-04-28T03:21:32.732Z,0
2019-04-28T03:23:55.194Z,0
2019-04-28T03:25:08.021Z,0
2019-04-28T03:26:19.545Z,0
2019-04-28T03:27:31.714Z,0
2019-04-28T03:28:44.107Z,0
2019-04-28T03:29:56.121Z,0
2019-04-28T03:31:08.279Z,0
2019-04-28T03:32:20.550Z,0
2019-04-28T03:33:32.663Z,0
2019-04-28T03:35:57.116Z,0
2019-04-28T03:37:09.306Z,0
2019-04-28T03:38:21.468Z,0
2019-04-28T03:39:33.690Z,0
2019-04-28T03:40:45.986Z,0
2019-04-28T03:41:58.192Z,0
2019-04-28T03:43:10.296Z,0
2019-04-28T03:44:22.494Z,0
2019-04-28T03:45:35.564Z,4
2019-04-28T03:47:59.115Z,0
2019-04-28T03:49:11.257Z,4
2019-04-28T03:50:23.567Z,4
2019-04-28T03:51:35.673Z,8
2019-04-28T03:52:47.808Z,8
2019-04-28T03:53:59.982Z,8
2019-04-28T03:55:12.148Z,12
2019-04-28T03:56:24.364Z,12
2019-04-28T03:57:36.578Z,20
2019-04-28T04:00:02.314Z,28
2019-04-28T04:01:13.159Z,32
2019-04-28T04:02:25.359Z,36
2019-04-28T04:03:37.512Z,44
2019-04-28T04:04:49.753Z,48
2019-04-28T04:06:01.934Z,60
2019-04-28T04:08:28.549Z,76
2019-04-28T04:09:38.564Z,84
2019-04-28T04:12:03.062Z,104
2019-04-28T04:13:15.113Z,120
2019-04-28T04:14:27.367Z,128
2019-04-28T04:15:39.459Z,144
2019-04-28T04:16:51.651Z,164
2019-04-28T04:18:03.846Z,180
2019-04-28T04:19:16.024Z,192
2019-04-28T04:20:28.222Z,208
2019-04-28T04:21:40.505Z,216
2019-04-28T04:24:05.223Z,216
2019-04-28T04:25:16.988Z,228
2019-04-28T04:26:29.218Z,240
2019-04-28T04:27:42.481Z,244
2019-04-28T04:28:53.595Z,252
2019-04-28T04:30:05.768Z,268
2019-04-28T04:31:18.045Z,300
2019-04-28T04:32:30.178Z,336
2019-04-28T04:33:42.372Z,364
2019-04-28T04:37:19.027Z,460
2019-04-28T04:38:31.221Z,484
2019-04-28T04:39:43.345Z,524
2019-04-28T04:40:55.583Z,572
2019-04-28T04:42:07.869Z,628
2019-04-28T04:43:19.915Z,680
2019-04-28T04:44:32.106Z,740
2019-04-28T04:45:44.290Z,740
2019-04-28T04:48:08.730Z,680
2019-04-28T04:49:21.103Z,672
2019-04-28T04:50:33.145Z,672
2019-04-28T04:51:45.258Z,692
2019-04-28T04:52:57.463Z,724
2019-04-28T04:54:09.688Z,784
2019-04-28T04:55:22.535Z,880
2019-04-28T04:56:34.036Z,912
2019-04-28T04:57:46.236Z,888
2019-04-28T05:00:10.630Z,968
2019-04-28T05:01:22.804Z,1104
2019-04-28T05:02:35.025Z,1188
2019-04-28T05:03:47.387Z,1236
2019-04-28T05:04:59.381Z,1228
2019-04-28T05:06:11.706Z,1224
2019-04-28T05:07:23.786Z,1200
2019-04-28T05:08:35.977Z,1124
2019-04-28T05:09:48.201Z,1016
2019-04-28T05:12:12.709Z,836
2019-04-28T05:13:24.839Z,800
2019-04-28T05:14:37.010Z,804
2019-04-28T05:15:49.198Z,864
2019-04-28T05:17:01.325Z,956
2019-04-28T05:18:13.552Z,1012
2019-04-28T05:19:25.712Z,984
2019-04-28T05:20:37.907Z,920
2019-04-28T05:24:14.989Z,968
2019-04-28T05:25:26.707Z,968
2019-04-28T05:26:39.081Z,952
2019-04-28T05:27:51.105Z,956
2019-04-28T05:29:03.376Z,952
2019-04-28T05:30:15.503Z,980
2019-04-28T05:31:27.757Z,1044
2019-04-28T05:32:39.934Z,1100
2019-04-28T05:33:52.029Z,1108
2019-04-28T05:37:28.638Z,1196
2019-04-28T05:38:40.832Z,1272
2019-04-28T05:39:52.994Z,1352
2019-04-28T05:41:05.263Z,1364
2019-04-28T05:42:17.401Z,1348
2019-04-28T05:43:29.701Z,1392
2019-04-28T05:44:41.791Z,1596
2019-04-28T05:45:54.088Z,1852
2019-04-28T05:49:30.550Z,2448
2019-04-28T05:50:42.757Z,2648
2019-04-28T05:51:54.937Z,2904
2019-04-28T05:53:07.191Z,3080
2019-04-28T05:54:19.342Z,3180
2019-04-28T05:55:31.581Z,3200
2019-04-28T05:56:43.815Z,3188
2019-04-28T05:57:55.909Z,3168
2019-04-28T06:00:20.467Z,3236
2019-04-28T06:01:32.539Z,3228
2019-04-28T06:02:44.823Z,3252
2019-04-28T06:03:56.873Z,3284
2019-04-28T06:05:09.203Z,3308
2019-04-28T06:06:21.346Z,3416
2019-04-28T06:07:33.604Z,3596
2019-04-28T06:08:45.713Z,3748
2019-04-28T06:09:57.858Z,3852
2019-04-28T06:12:22.227Z,3948
2019-04-28T06:13:34.434Z,3920
2019-04-28T06:14:49.244Z,3756
2019-04-28T06:16:02.861Z,3488
2019-04-28T06:17:11.018Z,3248
2019-04-28T06:18:23.201Z,3092
2019-04-28T06:19:35.529Z,2940
2019-04-28T06:20:47.639Z,2908
2019-04-28T06:21:59.959Z,2944
2019-04-28T06:24:24.318Z,2792
2019-04-28T06:25:36.829Z,2736
2019-04-28T06:26:48.635Z,2880
2019-04-28T06:28:00.866Z,3068
2019-04-28T06:29:12.993Z,3288
2019-04-28T06:30:25.140Z,3300
2019-04-28T06:31:37.361Z,3272
2019-04-28T06:32:49.656Z,3352
2019-04-28T06:34:01.733Z,3604
2019-04-28T06:36:27.256Z,4376
2019-04-28T06:37:38.301Z,4720
2019-04-28T06:38:50.567Z,4936
2019-04-28T06:40:02.693Z,5052
2019-04-28T06:41:14.894Z,5124
2019-04-28T06:42:27.195Z,5040
2019-04-28T06:43:39.403Z,4936
2019-04-28T06:44:51.646Z,4728
2019-04-28T06:46:03.666Z,4724
2019-04-28T06:48:28.077Z,5172
2019-04-28T06:49:40.235Z,5804
2019-04-28T06:50:52.448Z,6456
2019-04-28T06:52:04.623Z,7072
2019-04-28T06:53:16.925Z,7572
2019-04-28T06:54:29.024Z,7900
2019-04-28T06:55:41.211Z,8116
2019-04-28T06:56:53.510Z,8292
2019-04-28T06:58:05.660Z,8824
2019-04-28T07:01:42.182Z,11784
2019-04-28T07:02:54.374Z,12816
2019-04-28T07:04:06.637Z,13536
2019-04-28T07:05:18.757Z,14388
2019-04-28T07:06:30.974Z,14840
2019-04-28T07:08:55.414Z,14760
2019-04-28T07:10:07.594Z,14168
2019-04-28T07:12:31.973Z,13424
2019-04-28T07:13:44.186Z,13924
2019-04-28T07:14:56.387Z,13940
2019-04-28T07:16:08.508Z,14388
2019-04-28T07:17:20.749Z,15160
2019-04-28T07:18:32.913Z,16160
2019-04-28T07:19:45.172Z,16864
2019-04-28T07:20:57.630Z,16960
2019-04-28T07:25:46.225Z,17312
2019-04-28T07:26:58.365Z,19520
2019-04-28T07:28:10.524Z,26208
2019-04-28T07:29:22.692Z,24096
2019-04-28T07:30:34.835Z,26944
2019-04-28T07:31:47.021Z,40000
2019-04-28T07:32:59.218Z,68480
2019-04-28T07:34:11.518Z,66304
2019-04-28T07:36:35.789Z,16896
2019-04-28T07:37:48.017Z,69952
2019-04-28T07:39:00.239Z,71424
2019-04-28T07:40:12.388Z,71488
2019-04-28T07:41:24.771Z,80896
2019-04-28T07:42:36.822Z,22816
2019-04-28T07:43:49.048Z,69504
2019-04-28T07:45:01.146Z,17568
2019-04-28T07:46:13.593Z,25824
2019-04-28T07:49:50.010Z,18016
2019-04-28T07:51:02.148Z,8940
2019-04-28T07:52:14.329Z,6912
2019-04-28T07:53:27.815Z,6504
2019-04-28T07:54:38.840Z,6604
2019-04-28T07:55:50.994Z,8372
2019-04-28T07:57:03.110Z,10472
2019-04-28T07:58:15.278Z,10800
2019-04-28T08:01:51.957Z,6316
2019-04-28T08:04:16.264Z,6740
2019-04-28T08:05:28.449Z,7168
2019-04-28T08:06:40.634Z,9080
2019-04-28T08:07:53.022Z,10488
2019-04-28T08:09:05.022Z,10412
2019-04-28T08:10:17.276Z,9820
2019-04-28T08:12:41.677Z,26944
2019-04-28T08:13:53.794Z,20896
2019-04-28T08:15:05.996Z,75520
2019-04-28T08:16:18.800Z,66560
2019-04-28T08:17:31.805Z,16516
2019-04-28T08:18:42.686Z,14288
2019-04-28T08:19:54.831Z,14040
2019-04-28T08:21:06.954Z,76448
2019-04-28T08:25:57.418Z,88800
2019-04-28T08:27:07.924Z,39616
2019-04-28T08:28:20.207Z,24576
2019-04-28T08:29:32.501Z,53312
2019-04-28T08:30:44.614Z,43040
2019-04-28T08:31:56.830Z,59136
2019-04-28T08:33:08.896Z,34432
2019-04-28T08:34:21.150Z,86112
2019-04-28T08:37:57.655Z,38976
2019-04-28T08:40:22.287Z,69632
2019-04-28T08:41:34.244Z,55936
2019-04-28T08:42:46.439Z,33696
2019-04-28T08:45:10.907Z,97312
2019-04-28T08:46:23.154Z,99552
2019-04-28T08:48:47.401Z,50144
2019-04-28T08:49:59.678Z,33184
2019-04-28T08:52:24.076Z,61824
2019-04-28T08:53:36.314Z,48704
2019-04-28T08:54:48.424Z,74528
2019-04-28T08:57:12.973Z,62272
2019-04-28T08:58:25.056Z,78176
2019-04-28T09:00:49.427Z,49184
2019-04-28T09:02:01.550Z,47360
2019-04-28T09:03:13.964Z,64640
2019-04-28T09:04:25.942Z,93184
2019-04-28T09:06:50.487Z,82560
2019-04-28T09:08:02.566Z,18176
2019-04-28T09:09:14.810Z,16512
2019-04-28T09:10:27.012Z,15652
2019-04-28T09:12:51.304Z,14336
2019-04-28T09:14:03.517Z,12820
2019-04-28T09:16:27.925Z,12668
2019-04-28T09:17:40.156Z,15420
2019-04-28T09:18:52.250Z,15276
2019-04-28T09:21:16.621Z,11216
2019-04-28T09:22:28.912Z,11480
2019-04-28T09:24:53.744Z,11876
2019-04-28T09:26:05.488Z,14232
2019-04-28T09:27:17.658Z,18976
2019-04-28T09:28:29.885Z,46784
2019-04-28T09:29:42.178Z,35392
2019-04-28T09:30:54.181Z,29024
2019-04-28T09:32:06.404Z,22016
2019-04-28T09:33:18.681Z,22848
2019-04-28T09:34:30.787Z,25312
2019-04-28T09:36:55.308Z,26816
2019-04-28T09:38:07.474Z,23648
2019-04-28T09:39:19.686Z,30688
2019-04-28T09:40:31.732Z,25056
2019-04-28T09:42:56.105Z,41312
2019-04-28T09:44:08.396Z,50784
2019-04-28T09:45:20.496Z,46752
2019-04-28T09:46:32.826Z,30848
2019-04-28T09:48:57.270Z,28896
2019-04-28T09:50:09.271Z,38112
2019-04-28T09:51:21.626Z,43872
2019-04-28T09:52:33.670Z,55776
2019-04-28T09:53:49.419Z,51776
2019-04-28T09:54:58.142Z,85920
2019-04-28T09:57:22.483Z,49760
2019-04-28T10:00:59.150Z,78976
2019-04-28T10:02:11.214Z,35968
2019-04-28T10:03:23.456Z,29024
2019-04-28T10:04:35.610Z,25856
2019-04-28T10:05:47.904Z,102304
2019-04-28T10:06:59.999Z,32512
2019-04-28T10:08:12.218Z,30624
2019-04-28T10:09:24.460Z,29952
2019-04-28T10:10:36.596Z,43584
2019-04-28T10:13:01.065Z,19424
2019-04-28T10:14:13.169Z,16064
2019-04-28T10:15:25.348Z,14128
2019-04-28T10:16:37.713Z,13328
2019-04-28T10:19:02.185Z,17344
2019-04-28T10:20:14.216Z,67488
2019-04-28T10:21:26.306Z,26752
2019-04-28T10:22:38.493Z,29152
2019-04-28T10:25:02.939Z,22880
2019-04-28T10:26:15.484Z,23648
2019-04-28T10:28:39.482Z,25824
2019-04-28T10:29:51.819Z,28448
2019-04-28T10:31:08.012Z,56416
2019-04-28T10:32:16.061Z,49696
2019-04-28T10:33:28.503Z,68864
2019-04-28T10:37:04.925Z,126272
2019-04-28T10:38:17.039Z,101568
2019-04-28T10:40:41.393Z,38848
2019-04-28T10:41:54.859Z,42496
2019-04-28T10:43:05.807Z,38752
2019-04-28T10:44:18.007Z,62240
2019-04-28T10:45:30.170Z,95776
2019-04-28T10:46:42.416Z,110912
2019-04-28T10:49:06.821Z,58560
2019-04-28T10:50:18.982Z,63360
2019-04-28T10:51:31.263Z,63040
2019-04-28T10:52:43.450Z,27808
2019-04-28T10:53:55.554Z,20064
2019-04-28T10:55:07.717Z,19104
2019-04-28T10:56:20.091Z,20864
2019-04-28T10:57:32.115Z,103136
2019-04-28T10:58:44.305Z,94816
2019-04-28T11:01:08.698Z,52480
2019-04-28T11:02:20.890Z,86656
2019-04-28T11:03:33.141Z,110656
2019-04-28T11:04:45.264Z,104896
2019-04-28T11:05:57.520Z,107232
2019-04-28T11:07:10.209Z,108640
2019-04-28T11:09:34.039Z,106464
2019-04-28T11:10:46.319Z,109824
2019-04-28T11:13:10.632Z,17376
2019-04-28T11:14:22.822Z,17856
2019-04-28T11:16:47.195Z,106816
2019-04-28T11:17:59.484Z,106464
2019-04-28T11:19:11.635Z,52032
2019-04-28T11:20:24.036Z,96448
2019-04-28T11:21:35.998Z,94240
2019-04-28T11:22:48.300Z,17728
2019-04-28T11:25:12.597Z,12292
2019-04-28T11:26:27.576Z,12740
2019-04-28T11:28:49.324Z,13596
2019-04-28T11:31:13.542Z,11708
2019-04-28T11:33:37.925Z,9204
2019-04-28T11:34:50.266Z,8376
2019-04-28T11:38:26.695Z,7304
2019-04-28T11:39:39.024Z,7568
2019-04-28T11:40:51.078Z,8180
2019-04-28T11:42:03.277Z,10164
2019-04-28T11:43:15.471Z,11784
2019-04-28T11:44:27.685Z,12068
2019-04-28T11:45:39.892Z,11736
2019-04-28T11:46:52.179Z,12236
2019-04-28T11:49:16.472Z,13404
2019-04-28T11:50:28.637Z,13404
2019-04-28T11:51:40.853Z,13096
2019-04-28T11:52:53.044Z,13400
2019-04-28T11:54:05.408Z,13428
2019-04-28T11:55:17.448Z,14440
2019-04-28T11:57:41.804Z,14196
2019-04-28T11:58:54.032Z,14852
2019-04-28T12:02:33.647Z,17888
2019-04-28T12:03:42.853Z,18336
2019-04-28T12:04:54.995Z,18240
2019-04-28T12:07:19.356Z,17376
2019-04-28T12:08:31.754Z,16928
2019-04-28T12:09:43.748Z,16800
2019-04-28T12:13:20.545Z,16992
2019-04-28T12:14:32.954Z,17824
2019-04-28T12:16:56.924Z,19488
2019-04-28T12:18:09.199Z,20864
2019-04-28T12:19:21.458Z,20896
2019-04-28T12:20:33.596Z,21472
2019-04-28T12:21:45.714Z,21760
2019-04-28T12:22:57.946Z,20672
2019-04-28T12:25:22.322Z,18496
2019-04-28T12:26:34.488Z,18080
2019-04-28T12:27:46.721Z,18112
2019-04-28T12:28:58.912Z,18368
2019-04-28T12:30:11.138Z,18112
2019-04-28T12:31:23.268Z,17824
2019-04-28T12:32:35.562Z,17600
2019-04-28T12:33:47.687Z,17568
2019-04-28T12:34:59.857Z,17408
2019-04-28T12:36:12.102Z,17376
2019-04-28T12:37:24.364Z,17440
2019-04-28T12:38:36.452Z,17568
2019-04-28T12:39:48.617Z,17824
2019-04-28T12:41:00.892Z,18336
2019-04-28T12:42:13.034Z,18816
2019-04-28T12:43:25.205Z,19488
2019-04-28T12:44:37.400Z,20064
2019-04-28T12:45:49.640Z,20384
2019-04-28T12:49:26.310Z,20864
2019-04-28T12:50:38.373Z,19744
2019-04-28T12:51:50.710Z,18112
2019-04-28T12:53:02.778Z,15908
2019-04-28T12:54:14.956Z,13932
2019-04-28T12:55:27.170Z,12012
2019-04-28T12:56:39.422Z,9884
2019-04-28T12:57:51.565Z,8016
2019-04-28T12:59:04.575Z,6520
2019-04-28T13:01:28.358Z,4852
2019-04-28T13:02:40.364Z,4404
2019-04-28T13:05:04.825Z,3260
2019-04-28T13:06:16.935Z,2848
2019-04-28T13:07:29.122Z,2636
2019-04-28T13:08:41.388Z,2568
2019-04-28T13:09:53.586Z,2596
2019-04-28T13:11:05.688Z,2656
2019-04-28T13:13:30.089Z,2840
2019-04-28T13:14:42.291Z,2904
2019-04-28T13:15:54.656Z,3040
2019-04-28T13:17:06.709Z,3196
2019-04-28T13:18:18.891Z,3256
2019-04-28T13:19:31.064Z,3244
2019-04-28T13:20:43.308Z,3240
2019-04-28T13:21:55.533Z,3196
2019-04-28T13:23:07.694Z,3080
2019-04-28T13:24:20.193Z,2924
2019-04-28T13:25:32.062Z,2756
2019-04-28T13:26:44.682Z,2652
2019-04-28T13:27:56.423Z,2636
2019-04-28T13:29:08.643Z,2624
2019-04-28T13:30:20.813Z,2604
2019-04-28T13:31:33.080Z,2592
2019-04-28T13:32:45.214Z,2540
2019-04-28T13:33:57.494Z,2368
2019-04-28T13:35:09.599Z,2212
2019-04-28T13:38:46.202Z,2000
2019-04-28T13:39:58.371Z,1992
2019-04-28T13:41:14.143Z,1988
2019-04-28T13:42:22.786Z,1940
2019-04-28T13:43:34.970Z,1868
2019-04-28T13:44:47.156Z,1840
2019-04-28T13:45:59.378Z,1880
2019-04-28T13:47:11.762Z,1956
2019-04-28T13:49:35.956Z,2240
2019-04-28T13:50:51.936Z,2416
2019-04-28T13:52:00.332Z,2576
2019-04-28T13:53:12.536Z,2752
2019-04-28T13:54:24.718Z,2988
2019-04-28T13:55:37.699Z,3348
2019-04-28T13:56:49.117Z,3636
2019-04-28T13:58:01.396Z,3716
2019-04-28T13:59:13.499Z,3736
2019-04-28T14:01:37.918Z,3680
2019-04-28T14:02:50.196Z,3704
2019-04-28T14:04:02.340Z,3704
2019-04-28T14:05:14.620Z,3768
2019-04-28T14:06:26.732Z,3840
2019-04-28T14:07:38.871Z,3844
2019-04-28T14:08:51.101Z,4016
2019-04-28T14:10:03.264Z,4276
2019-04-28T14:11:15.594Z,4460
2019-04-28T14:12:27.663Z,4624
2019-04-28T14:13:39.898Z,4724
2019-04-28T14:14:52.039Z,4740
2019-04-28T14:16:04.233Z,4728
2019-04-28T14:17:16.534Z,4716
2019-04-28T14:18:28.625Z,4720
2019-04-28T14:19:40.979Z,4764
2019-04-28T14:20:53.026Z,4760
2019-04-28T14:22:05.303Z,4772
2019-04-28T14:23:17.408Z,4768
2019-04-28T14:25:41.808Z,4736
2019-04-28T14:26:54.005Z,4720
2019-04-28T14:28:06.201Z,4756
2019-04-28T14:29:18.445Z,4824
2019-04-28T14:30:30.639Z,4904
2019-04-28T14:31:42.784Z,5016
2019-04-28T14:32:54.984Z,5136
2019-04-28T14:34:07.172Z,5248
2019-04-28T14:35:19.391Z,5388
2019-04-28T14:37:43.750Z,5784
2019-04-28T14:38:55.944Z,6048
2019-04-28T14:40:08.132Z,6368
2019-04-28T14:41:20.408Z,6716
2019-04-28T14:42:32.548Z,7060
2019-04-28T14:43:44.743Z,7388
2019-04-28T14:44:56.923Z,7564
2019-04-28T14:46:09.259Z,7676
2019-04-28T14:47:21.408Z,7692
2019-04-28T14:48:33.597Z,7652
2019-04-28T14:49:45.805Z,7640
2019-04-28T14:50:57.902Z,7616
2019-04-28T14:52:10.179Z,7572
2019-04-28T14:53:22.393Z,7432
2019-04-28T14:54:34.738Z,7268
2019-04-28T14:55:46.997Z,7172
2019-04-28T14:56:58.927Z,7128
2019-04-28T14:58:11.079Z,7144
2019-04-28T14:59:23.294Z,7208
2019-04-28T15:00:35.515Z,7280
2019-04-28T15:01:47.804Z,7336
2019-04-28T15:02:59.877Z,7368
2019-04-28T15:04:12.096Z,7412
2019-04-28T15:05:24.238Z,7412
2019-04-28T15:06:36.536Z,7288
2019-04-28T15:07:48.639Z,7040
2019-04-28T15:09:00.835Z,6808
2019-04-28T15:10:13.059Z,6708
2019-04-28T15:11:25.234Z,6724
2019-04-28T15:15:01.817Z,6776
2019-04-28T15:16:14.023Z,6744
2019-04-28T15:17:26.265Z,6684
2019-04-28T15:18:38.601Z,6556
2019-04-28T15:19:50.913Z,6356
2019-04-28T15:22:14.977Z,6020
2019-04-28T15:23:27.370Z,6100
2019-04-28T15:25:51.912Z,6644
2019-04-28T15:27:04.901Z,6712
2019-04-28T15:28:15.967Z,6588
2019-04-28T15:29:28.148Z,6364
2019-04-28T15:30:40.503Z,6104
2019-04-28T15:31:52.655Z,5880
2019-04-28T15:33:04.735Z,5732
2019-04-28T15:34:17.011Z,5592
2019-04-28T15:35:29.140Z,5384
2019-04-28T15:37:53.592Z,4980
2019-04-28T15:39:05.829Z,4880
2019-04-28T15:40:17.922Z,4828
2019-04-28T15:41:30.104Z,4768
2019-04-28T15:42:42.315Z,4700
2019-04-28T15:43:54.493Z,4532
2019-04-28T15:45:06.682Z,4324
2019-04-28T15:46:18.895Z,4184
2019-04-28T15:47:31.115Z,4116
2019-04-28T15:48:43.320Z,4116
2019-04-28T15:49:55.469Z,4152
2019-04-28T15:51:07.654Z,4224
2019-04-28T15:52:19.848Z,4324
2019-04-28T15:53:32.481Z,4428
2019-04-28T15:54:44.246Z,4548
2019-04-28T15:57:08.647Z,4688
2019-04-28T15:58:20.828Z,4684
2019-04-28T15:59:33.078Z,4568
2019-04-28T16:01:57.482Z,4084
2019-04-28T16:03:10.186Z,3812
2019-04-28T16:04:21.916Z,3492
2019-04-28T16:05:34.010Z,3188
2019-04-28T16:06:46.197Z,2976
2019-04-28T16:07:58.502Z,2844
2019-04-28T16:09:10.683Z,2748
2019-04-28T16:10:22.835Z,2732
2019-04-28T16:13:59.386Z,2872
2019-04-28T16:15:11.586Z,2928
2019-04-28T16:16:23.850Z,3000
2019-04-28T16:17:35.950Z,3160
2019-04-28T16:20:00.420Z,3968
2019-04-28T16:21:12.858Z,4404
2019-04-28T16:22:24.728Z,4704
2019-04-28T16:23:37.105Z,4920
2019-04-28T16:24:49.140Z,5084
2019-04-28T16:26:01.408Z,5200
2019-04-28T16:27:13.540Z,5164
2019-04-28T16:28:25.816Z,5000
2019-04-28T16:29:38.048Z,4784
2019-04-28T16:30:50.445Z,4576
2019-04-28T16:32:03.898Z,4416
2019-04-28T16:34:26.685Z,4256
2019-04-28T16:35:38.992Z,4224
2019-04-28T16:38:03.274Z,4076
2019-04-28T16:39:15.487Z,3992
2019-04-28T16:40:27.875Z,3972
2019-04-28T16:41:39.872Z,3972
2019-04-28T16:44:04.376Z,3940
2019-04-28T16:45:16.572Z,3916
2019-04-28T16:46:28.711Z,3872
2019-04-28T16:50:05.675Z,3568
2019-04-28T16:51:17.454Z,3532
2019-04-28T16:52:29.664Z,3528
2019-04-28T16:53:41.833Z,3500
2019-04-28T16:54:54.009Z,3416
2019-04-28T16:56:06.682Z,3328
2019-04-28T16:57:18.645Z,3208
2019-04-28T16:58:30.635Z,3040
2019-04-28T16:59:42.849Z,2832
2019-04-28T17:02:07.236Z,2404
2019-04-28T17:03:19.385Z,2228
2019-04-28T17:04:34.865Z,2120
2019-04-28T17:05:43.809Z,2060
2019-04-28T17:06:56.104Z,2020
2019-04-28T17:08:08.170Z,1988
2019-04-28T17:09:20.524Z,1964
2019-04-28T17:10:32.556Z,1944
2019-04-28T17:11:44.774Z,1928
2019-04-28T17:12:57.028Z,1908
2019-04-28T17:14:09.305Z,1900
2019-04-28T17:15:21.347Z,1888
2019-04-28T17:16:33.633Z,1876
2019-04-28T17:17:45.792Z,1864
2019-04-28T17:18:58.040Z,1856
2019-04-28T17:20:10.184Z,1844
2019-04-28T17:21:22.333Z,1828
2019-04-28T17:22:34.585Z,1820
2019-04-28T17:23:46.728Z,1808
2019-04-28T17:27:23.422Z,1768
2019-04-28T17:28:35.540Z,1756
2019-04-28T17:29:47.709Z,1744
2019-04-28T17:30:59.952Z,1720
2019-04-28T17:32:12.257Z,1708
2019-04-28T17:33:24.267Z,1700
2019-04-28T17:34:36.577Z,1676
2019-04-28T17:35:48.697Z,1660
2019-04-28T17:38:13.046Z,1624
2019-04-28T17:39:25.244Z,1608
2019-04-28T17:40:37.450Z,1588
2019-04-28T17:41:49.727Z,1572
2019-04-28T17:43:01.845Z,1556
2019-04-28T17:44:14.042Z,1536
2019-04-28T17:45:26.236Z,1524
2019-04-28T17:46:38.431Z,1504
2019-04-28T17:47:50.740Z,1484
2019-04-28T17:49:02.845Z,1464
2019-04-28T17:50:15.010Z,1448
2019-04-28T17:51:27.294Z,1424
2019-04-28T17:52:39.478Z,1408
2019-04-28T17:53:51.814Z,1384
2019-04-28T17:55:03.893Z,1364
2019-04-28T17:56:16.083Z,1340
2019-04-28T17:58:40.435Z,1296
2019-04-28T17:59:52.627Z,1272
2019-04-28T18:02:17.016Z,1224
2019-04-28T18:03:29.208Z,1200
2019-04-28T18:04:41.590Z,1176
2019-04-28T18:05:53.583Z,1144
2019-04-28T18:07:05.760Z,1124
2019-04-28T18:08:17.975Z,1096
2019-04-28T18:09:30.243Z,1068
2019-04-28T18:10:42.333Z,1040
2019-04-28T18:11:54.658Z,1012
2019-04-28T18:14:18.927Z,952
2019-04-28T18:15:31.126Z,916
2019-04-28T18:16:43.437Z,880
2019-04-28T18:17:55.503Z,848
2019-04-28T18:19:07.707Z,812
2019-04-28T18:20:19.940Z,776
2019-04-28T18:21:32.099Z,744
2019-04-28T18:22:44.364Z,712
2019-04-28T18:23:56.667Z,680
2019-04-28T18:27:33.074Z,584
2019-04-28T18:28:45.360Z,556
2019-04-28T18:29:57.462Z,524
2019-04-28T18:31:09.744Z,496
2019-04-28T18:32:21.915Z,468
2019-04-28T18:33:34.053Z,436
2019-04-28T18:34:46.338Z,412
2019-04-28T18:35:58.466Z,384
2019-04-28T18:38:22.873Z,336
2019-04-28T18:39:35.042Z,308
2019-04-28T18:40:47.238Z,284
2019-04-28T18:41:59.448Z,260
2019-04-28T18:43:11.640Z,236
2019-04-28T18:44:23.821Z,216
2019-04-28T18:45:36.118Z,192
2019-04-28T18:46:48.242Z,172
2019-04-28T18:48:00.468Z,152
2019-04-28T18:50:24.784Z,120
2019-04-28T18:51:37.051Z,104
2019-04-28T18:52:49.272Z,92
2019-04-28T18:54:01.421Z,80
2019-04-28T18:55:13.616Z,72
2019-04-28T18:56:25.839Z,60
2019-04-28T18:58:50.309Z,44
2019-04-28T19:00:02.340Z,36
2019-04-28T19:03:38.967Z,24
2019-04-28T19:04:51.206Z,20
2019-04-28T19:06:03.374Z,16
2019-04-28T19:07:15.552Z,12
2019-04-28T19:08:27.710Z,12
2019-04-28T19:09:39.999Z,8
2019-04-28T19:10:52.099Z,8
2019-04-28T19:12:04.437Z,4
2019-04-28T19:13:20.493Z,4
2019-04-28T19:14:28.692Z,4
2019-04-28T19:15:40.916Z,4